sensor_id;sensor_type;location;lat;lon;timestamp;P1;durP1;ratioP1;P2;durP2;ratioP2
44270;SDS011;29963;44.594;11.368;2023-03-11T00:01:51;2.55;;;1.73;;
44270;SDS011;29963;44.594;11.368;2023-03-11T00:04:16;2.47;;;1.73;;
44270;SDS011;29963;44.594;11.368;2023-03-11T00:06:42;3.20;;;1.67;;
44270;SDS011;29963;44.594;11.368;2023-03-11T00:09:07;5.15;;;1.55;;
44270;SDS011;29963;44.594;11.368;2023-03-11T00:11:33;3.63;;;1.67;;
44270;SDS011;29963;44.594;11.368;2023-03-11T00:13:59;4.45;;;1.65;;
44270;SDS011;29963;44.594;11.368;2023-03-11T00:16:24;9.07;;;2.33;;
44270;SDS011;29963;44.594;11.368;2023-03-11T00:18:50;2.92;;;1.52;;
44270;SDS011;29963;44.594;11.368;2023-03-11T00:21:16;1.70;;;1.27;;
44270;SDS011;29963;44.594;11.368;2023-03-11T00:23:44;2.75;;;1.40;;
44270;SDS011;29963;44.594;11.368;2023-03-11T00:26:10;3.08;;;1.40;;
44270;SDS011;29963;44.594;11.368;2023-03-11T00:28:35;1.05;;;0.95;;
44270;SDS011;29963;44.594;11.368;2023-03-11T00:31:01;2.90;;;1.15;;
44270;SDS011;29963;44.594;11.368;2023-03-11T00:33:27;2.33;;;1.50;;
44270;SDS011;29963;44.594;11.368;2023-03-11T00:35:53;2.08;;;1.35;;
44270;SDS011;29963;44.594;11.368;2023-03-11T00:38:19;3.10;;;1.30;;
44270;SDS011;29963;44.594;11.368;2023-03-11T00:40:45;3.35;;;1.55;;
44270;SDS011;29963;44.594;11.368;2023-03-11T00:43:12;2.03;;;1.33;;
44270;SDS011;29963;44.594;11.368;2023-03-11T00:45:38;2.13;;;1.60;;
44270;SDS011;29963;44.594;11.368;2023-03-11T00:48:04;6.03;;;1.23;;
44270;SDS011;29963;44.594;11.368;2023-03-11T00:50:34;4.63;;;1.52;;
44270;SDS011;29963;44.594;11.368;2023-03-11T00:53:02;1.90;;;1.23;;
44270;SDS011;29963;44.594;11.368;2023-03-11T00:55:30;3.05;;;1.85;;
44270;SDS011;29963;44.594;11.368;2023-03-11T00:57:57;4.95;;;1.40;;
44270;SDS011;29963;44.594;11.368;2023-03-11T01:00:25;1.70;;;1.35;;
44270;SDS011;29963;44.594;11.368;2023-03-11T01:02:52;2.30;;;1.42;;
44270;SDS011;29963;44.594;11.368;2023-03-11T01:05:20;2.30;;;1.20;;
44270;SDS011;29963;44.594;11.368;2023-03-11T01:07:48;6.40;;;1.50;;
44270;SDS011;29963;44.594;11.368;2023-03-11T01:10:14;1.70;;;1.33;;
44270;SDS011;29963;44.594;11.368;2023-03-11T01:12:40;3.05;;;1.35;;
44270;SDS011;29963;44.594;11.368;2023-03-11T01:15:07;2.25;;;1.55;;
44270;SDS011;29963;44.594;11.368;2023-03-11T01:17:34;2.67;;;1.83;;
44270;SDS011;29963;44.594;11.368;2023-03-11T01:20:00;4.22;;;1.85;;
44270;SDS011;29963;44.594;11.368;2023-03-11T01:22:26;4.18;;;1.60;;
44270;SDS011;29963;44.594;11.368;2023-03-11T01:24:51;3.70;;;1.83;;
44270;SDS011;29963;44.594;11.368;2023-03-11T01:27:17;6.60;;;1.90;;
44270;SDS011;29963;44.594;11.368;2023-03-11T01:29:42;3.20;;;1.70;;
44270;SDS011;29963;44.594;11.368;2023-03-11T01:32:09;2.92;;;1.70;;
44270;SDS011;29963;44.594;11.368;2023-03-11T01:34:34;1.58;;;1.48;;
44270;SDS011;29963;44.594;11.368;2023-03-11T01:37:01;3.53;;;1.73;;
44270;SDS011;29963;44.594;11.368;2023-03-11T01:39:27;2.95;;;1.77;;
44270;SDS011;29963;44.594;11.368;2023-03-11T01:41:53;3.33;;;2.05;;
44270;SDS011;29963;44.594;11.368;2023-03-11T01:44:20;5.15;;;1.58;;
44270;SDS011;29963;44.594;11.368;2023-03-11T01:49:17;1.85;;;1.33;;
44270;SDS011;29963;44.594;11.368;2023-03-11T01:51:45;2.55;;;1.42;;
44270;SDS011;29963;44.594;11.368;2023-03-11T01:54:24;1.50;;;1.33;;
44270;SDS011;29963;44.594;11.368;2023-03-11T01:56:52;3.28;;;1.70;;
44270;SDS011;29963;44.594;11.368;2023-03-11T01:59:22;2.20;;;1.58;;
44270;SDS011;29963;44.594;11.368;2023-03-11T02:02:01;2.88;;;1.65;;
44270;SDS011;29963;44.594;11.368;2023-03-11T02:04:28;2.13;;;1.33;;
44270;SDS011;29963;44.594;11.368;2023-03-11T02:06:58;8.27;;;1.95;;
44270;SDS011;29963;44.594;11.368;2023-03-11T02:09:25;3.00;;;1.63;;
44270;SDS011;29963;44.594;11.368;2023-03-11T02:11:51;6.35;;;1.45;;
44270;SDS011;29963;44.594;11.368;2023-03-11T02:14:17;2.17;;;1.63;;
44270;SDS011;29963;44.594;11.368;2023-03-11T02:16:43;2.15;;;1.42;;
44270;SDS011;29963;44.594;11.368;2023-03-11T02:19:17;3.90;;;1.45;;
44270;SDS011;29963;44.594;11.368;2023-03-11T02:22:06;3.45;;;1.30;;
44270;SDS011;29963;44.594;11.368;2023-03-11T02:24:35;1.42;;;1.27;;
44270;SDS011;29963;44.594;11.368;2023-03-11T02:27:08;2.55;;;1.42;;
44270;SDS011;29963;44.594;11.368;2023-03-11T02:29:36;4.25;;;1.50;;
44270;SDS011;29963;44.594;11.368;2023-03-11T02:32:03;2.85;;;1.27;;
44270;SDS011;29963;44.594;11.368;2023-03-11T02:34:33;1.92;;;1.17;;
44270;SDS011;29963;44.594;11.368;2023-03-11T02:37:03;6.70;;;1.55;;
44270;SDS011;29963;44.594;11.368;2023-03-11T02:39:34;1.65;;;1.02;;
44270;SDS011;29963;44.594;11.368;2023-03-11T02:42:06;1.75;;;1.20;;
44270;SDS011;29963;44.594;11.368;2023-03-11T02:44:37;1.95;;;1.20;;
44270;SDS011;29963;44.594;11.368;2023-03-11T02:47:07;1.05;;;1.00;;
44270;SDS011;29963;44.594;11.368;2023-03-11T02:49:34;2.75;;;1.08;;
44270;SDS011;29963;44.594;11.368;2023-03-11T02:52:01;2.10;;;1.33;;
44270;SDS011;29963;44.594;11.368;2023-03-11T02:54:26;1.77;;;1.20;;
44270;SDS011;29963;44.594;11.368;2023-03-11T02:56:52;1.92;;;1.30;;
44270;SDS011;29963;44.594;11.368;2023-03-11T02:59:18;4.28;;;1.38;;
44270;SDS011;29963;44.594;11.368;2023-03-11T03:01:43;2.72;;;1.52;;
44270;SDS011;29963;44.594;11.368;2023-03-11T03:04:09;2.33;;;1.45;;
44270;SDS011;29963;44.594;11.368;2023-03-11T03:06:34;1.10;;;0.98;;
44270;SDS011;29963;44.594;11.368;2023-03-11T03:09:00;3.75;;;1.33;;
44270;SDS011;29963;44.594;11.368;2023-03-11T03:11:25;3.33;;;1.40;;
44270;SDS011;29963;44.594;11.368;2023-03-11T03:13:51;2.95;;;1.80;;
44270;SDS011;29963;44.594;11.368;2023-03-11T03:16:17;4.70;;;1.52;;
44270;SDS011;29963;44.594;11.368;2023-03-11T03:18:42;1.85;;;1.15;;
44270;SDS011;29963;44.594;11.368;2023-03-11T03:21:08;2.28;;;1.13;;
44270;SDS011;29963;44.594;11.368;2023-03-11T03:23:33;4.22;;;1.70;;
44270;SDS011;29963;44.594;11.368;2023-03-11T03:26:01;2.00;;;1.30;;
44270;SDS011;29963;44.594;11.368;2023-03-11T03:28:28;3.80;;;1.42;;
44270;SDS011;29963;44.594;11.368;2023-03-11T03:30:53;1.42;;;1.30;;
44270;SDS011;29963;44.594;11.368;2023-03-11T03:33:19;1.42;;;1.20;;
44270;SDS011;29963;44.594;11.368;2023-03-11T03:35:45;1.95;;;1.17;;
44270;SDS011;29963;44.594;11.368;2023-03-11T03:38:11;3.13;;;1.27;;
44270;SDS011;29963;44.594;11.368;2023-03-11T03:40:37;3.63;;;1.38;;
44270;SDS011;29963;44.594;11.368;2023-03-11T03:43:03;2.47;;;1.23;;
44270;SDS011;29963;44.594;11.368;2023-03-11T03:45:32;2.35;;;1.75;;
44270;SDS011;29963;44.594;11.368;2023-03-11T03:47:57;1.42;;;1.33;;
44270;SDS011;29963;44.594;11.368;2023-03-11T03:50:23;2.35;;;1.73;;
44270;SDS011;29963;44.594;11.368;2023-03-11T03:52:48;5.15;;;1.63;;
44270;SDS011;29963;44.594;11.368;2023-03-11T03:55:14;1.65;;;1.52;;
44270;SDS011;29963;44.594;11.368;2023-03-11T03:57:40;4.82;;;1.77;;
44270;SDS011;29963;44.594;11.368;2023-03-11T04:00:05;3.60;;;1.92;;
44270;SDS011;29963;44.594;11.368;2023-03-11T04:02:34;1.80;;;1.30;;
44270;SDS011;29963;44.594;11.368;2023-03-11T04:05:00;1.58;;;1.38;;
44270;SDS011;29963;44.594;11.368;2023-03-11T04:07:26;4.75;;;1.70;;
44270;SDS011;29963;44.594;11.368;2023-03-11T04:09:51;1.30;;;1.20;;
44270;SDS011;29963;44.594;11.368;2023-03-11T04:12:17;2.38;;;1.45;;
44270;SDS011;29963;44.594;11.368;2023-03-11T04:14:43;2.15;;;1.42;;
44270;SDS011;29963;44.594;11.368;2023-03-11T04:17:12;1.20;;;1.13;;
44270;SDS011;29963;44.594;11.368;2023-03-11T04:19:38;2.08;;;1.30;;
44270;SDS011;29963;44.594;11.368;2023-03-11T04:22:04;1.70;;;1.35;;
44270;SDS011;29963;44.594;11.368;2023-03-11T04:24:30;3.78;;;1.55;;
44270;SDS011;29963;44.594;11.368;2023-03-11T04:26:56;3.80;;;1.00;;
44270;SDS011;29963;44.594;11.368;2023-03-11T04:29:21;1.58;;;1.25;;
44270;SDS011;29963;44.594;11.368;2023-03-11T04:31:47;4.30;;;1.50;;
44270;SDS011;29963;44.594;11.368;2023-03-11T04:34:12;1.42;;;1.10;;
44270;SDS011;29963;44.594;11.368;2023-03-11T04:36:38;2.75;;;1.58;;
44270;SDS011;29963;44.594;11.368;2023-03-11T04:39:04;1.88;;;1.38;;
44270;SDS011;29963;44.594;11.368;2023-03-11T04:41:30;1.90;;;1.25;;
44270;SDS011;29963;44.594;11.368;2023-03-11T04:43:55;3.13;;;1.40;;
44270;SDS011;29963;44.594;11.368;2023-03-11T04:46:23;1.60;;;1.40;;
44270;SDS011;29963;44.594;11.368;2023-03-11T04:48:48;1.38;;;1.10;;
44270;SDS011;29963;44.594;11.368;2023-03-11T04:51:14;1.38;;;1.27;;
44270;SDS011;29963;44.594;11.368;2023-03-11T04:53:40;3.28;;;1.20;;
44270;SDS011;29963;44.594;11.368;2023-03-11T04:56:05;1.30;;;1.20;;
44270;SDS011;29963;44.594;11.368;2023-03-11T04:58:31;3.00;;;1.23;;
44270;SDS011;29963;44.594;11.368;2023-03-11T05:00:57;1.42;;;1.33;;
44270;SDS011;29963;44.594;11.368;2023-03-11T05:03:22;3.13;;;1.40;;
44270;SDS011;29963;44.594;11.368;2023-03-11T05:05:48;4.63;;;1.08;;
44270;SDS011;29963;44.594;11.368;2023-03-11T05:08:14;6.97;;;1.67;;
44270;SDS011;29963;44.594;11.368;2023-03-11T05:10:39;1.25;;;1.13;;
44270;SDS011;29963;44.594;11.368;2023-03-11T05:13:06;1.90;;;1.00;;
44270;SDS011;29963;44.594;11.368;2023-03-11T05:15:32;3.25;;;1.20;;
44270;SDS011;29963;44.594;11.368;2023-03-11T05:17:58;1.10;;;1.00;;
44270;SDS011;29963;44.594;11.368;2023-03-11T05:20:26;1.67;;;1.05;;
44270;SDS011;29963;44.594;11.368;2023-03-11T05:22:52;1.65;;;1.23;;
44270;SDS011;29963;44.594;11.368;2023-03-11T05:25:17;1.33;;;1.20;;
44270;SDS011;29963;44.594;11.368;2023-03-11T05:27:43;1.20;;;1.10;;
44270;SDS011;29963;44.594;11.368;2023-03-11T05:30:09;1.15;;;1.05;;
44270;SDS011;29963;44.594;11.368;2023-03-11T05:32:35;1.33;;;1.23;;
44270;SDS011;29963;44.594;11.368;2023-03-11T05:35:01;1.35;;;1.25;;
44270;SDS011;29963;44.594;11.368;2023-03-11T05:37:26;1.50;;;1.35;;
44270;SDS011;29963;44.594;11.368;2023-03-11T05:39:54;1.88;;;1.55;;
44270;SDS011;29963;44.594;11.368;2023-03-11T05:42:20;7.10;;;3.42;;
44270;SDS011;29963;44.594;11.368;2023-03-11T05:44:45;7.53;;;3.88;;
44270;SDS011;29963;44.594;11.368;2023-03-11T05:47:11;3.47;;;2.42;;
44270;SDS011;29963;44.594;11.368;2023-03-11T05:49:36;3.22;;;1.67;;
44270;SDS011;29963;44.594;11.368;2023-03-11T05:52:02;5.80;;;1.83;;
44270;SDS011;29963;44.594;11.368;2023-03-11T05:54:28;5.75;;;1.23;;
44270;SDS011;29963;44.594;11.368;2023-03-11T05:56:53;1.30;;;1.20;;
44270;SDS011;29963;44.594;11.368;2023-03-11T05:59:19;2.47;;;1.30;;
44270;SDS011;29963;44.594;11.368;2023-03-11T06:01:45;2.90;;;1.02;;
44270;SDS011;29963;44.594;11.368;2023-03-11T06:04:11;3.50;;;1.40;;
44270;SDS011;29963;44.594;11.368;2023-03-11T06:06:37;4.97;;;1.52;;
44270;SDS011;29963;44.594;11.368;2023-03-11T06:09:05;4.05;;;1.52;;
44270;SDS011;29963;44.594;11.368;2023-03-11T06:11:30;5.50;;;1.88;;
44270;SDS011;29963;44.594;11.368;2023-03-11T06:13:56;11.50;;;2.67;;
44270;SDS011;29963;44.594;11.368;2023-03-11T06:16:23;10.27;;;2.17;;
44270;SDS011;29963;44.594;11.368;2023-03-11T06:18:50;8.02;;;2.70;;
44270;SDS011;29963;44.594;11.368;2023-03-11T06:21:17;7.45;;;2.53;;
44270;SDS011;29963;44.594;11.368;2023-03-11T06:23:44;6.15;;;2.75;;
44270;SDS011;29963;44.594;11.368;2023-03-11T06:26:15;6.95;;;2.25;;
44270;SDS011;29963;44.594;11.368;2023-03-11T06:28:43;7.78;;;2.70;;
44270;SDS011;29963;44.594;11.368;2023-03-11T06:31:19;6.70;;;1.90;;
44270;SDS011;29963;44.594;11.368;2023-03-11T06:33:49;8.40;;;3.00;;
44270;SDS011;29963;44.594;11.368;2023-03-11T06:36:16;11.05;;;3.15;;
44270;SDS011;29963;44.594;11.368;2023-03-11T06:38:43;14.32;;;3.35;;
44270;SDS011;29963;44.594;11.368;2023-03-11T06:41:10;10.73;;;2.95;;
44270;SDS011;29963;44.594;11.368;2023-03-11T06:43:36;12.13;;;2.92;;
44270;SDS011;29963;44.594;11.368;2023-03-11T06:46:14;8.50;;;2.20;;
44270;SDS011;29963;44.594;11.368;2023-03-11T06:48:41;6.80;;;2.15;;
44270;SDS011;29963;44.594;11.368;2023-03-11T06:51:08;9.10;;;3.13;;
44270;SDS011;29963;44.594;11.368;2023-03-11T06:53:34;6.03;;;2.30;;
44270;SDS011;29963;44.594;11.368;2023-03-11T06:56:06;8.20;;;2.70;;
44270;SDS011;29963;44.594;11.368;2023-03-11T06:58:35;9.32;;;2.63;;
44270;SDS011;29963;44.594;11.368;2023-03-11T07:01:09;5.93;;;2.40;;
44270;SDS011;29963;44.594;11.368;2023-03-11T07:03:37;8.93;;;2.58;;
44270;SDS011;29963;44.594;11.368;2023-03-11T07:06:03;5.57;;;2.15;;
44270;SDS011;29963;44.594;11.368;2023-03-11T07:08:29;6.68;;;3.10;;
44270;SDS011;29963;44.594;11.368;2023-03-11T07:11:15;6.25;;;2.28;;
44270;SDS011;29963;44.594;11.368;2023-03-11T07:13:42;3.75;;;1.75;;
44270;SDS011;29963;44.594;11.368;2023-03-11T07:16:16;7.60;;;2.78;;
44270;SDS011;29963;44.594;11.368;2023-03-11T07:18:45;3.97;;;2.25;;
44270;SDS011;29963;44.594;11.368;2023-03-11T07:21:12;6.68;;;2.45;;
44270;SDS011;29963;44.594;11.368;2023-03-11T07:23:39;3.47;;;1.90;;
44270;SDS011;29963;44.594;11.368;2023-03-11T07:26:12;5.13;;;1.90;;
44270;SDS011;29963;44.594;11.368;2023-03-11T07:28:40;4.93;;;1.85;;
44270;SDS011;29963;44.594;11.368;2023-03-11T07:31:13;6.50;;;1.90;;
44270;SDS011;29963;44.594;11.368;2023-03-11T07:33:44;6.68;;;2.13;;
44270;SDS011;29963;44.594;11.368;2023-03-11T07:36:11;5.00;;;1.77;;
44270;SDS011;29963;44.594;11.368;2023-03-11T07:38:38;4.85;;;1.77;;
44270;SDS011;29963;44.594;11.368;2023-03-11T07:41:04;4.45;;;1.55;;
44270;SDS011;29963;44.594;11.368;2023-03-11T07:43:30;6.60;;;1.90;;
44270;SDS011;29963;44.594;11.368;2023-03-11T07:46:03;3.53;;;1.75;;
44270;SDS011;29963;44.594;11.368;2023-03-11T07:48:30;1.67;;;1.17;;
44270;SDS011;29963;44.594;11.368;2023-03-11T07:50:59;6.00;;;2.05;;
44270;SDS011;29963;44.594;11.368;2023-03-11T07:53:26;2.95;;;1.33;;
44270;SDS011;29963;44.594;11.368;2023-03-11T07:55:55;1.75;;;1.33;;
44270;SDS011;29963;44.594;11.368;2023-03-11T07:58:22;3.40;;;1.40;;
44270;SDS011;29963;44.594;11.368;2023-03-11T08:00:47;2.35;;;1.30;;
44270;SDS011;29963;44.594;11.368;2023-03-11T08:03:13;1.85;;;1.15;;
44270;SDS011;29963;44.594;11.368;2023-03-11T08:05:39;3.70;;;1.00;;
44270;SDS011;29963;44.594;11.368;2023-03-11T08:08:04;4.07;;;1.27;;
44270;SDS011;29963;44.594;11.368;2023-03-11T08:10:30;1.63;;;1.20;;
44270;SDS011;29963;44.594;11.368;2023-03-11T08:12:55;6.60;;;1.00;;
44270;SDS011;29963;44.594;11.368;2023-03-11T08:15:24;1.27;;;0.95;;
44270;SDS011;29963;44.594;11.368;2023-03-11T08:17:49;2.10;;;1.20;;
44270;SDS011;29963;44.594;11.368;2023-03-11T08:20:15;2.50;;;1.20;;
44270;SDS011;29963;44.594;11.368;2023-03-11T08:22:41;2.85;;;1.20;;
44270;SDS011;29963;44.594;11.368;2023-03-11T08:25:06;2.75;;;1.67;;
44270;SDS011;29963;44.594;11.368;2023-03-11T08:27:32;8.23;;;1.60;;
44270;SDS011;29963;44.594;11.368;2023-03-11T08:29:58;3.03;;;1.30;;
44270;SDS011;29963;44.594;11.368;2023-03-11T08:32:23;3.50;;;1.77;;
44270;SDS011;29963;44.594;11.368;2023-03-11T08:34:49;3.78;;;1.45;;
44270;SDS011;29963;44.594;11.368;2023-03-11T08:37:15;3.53;;;1.42;;
44270;SDS011;29963;44.594;11.368;2023-03-11T08:39:40;4.93;;;1.60;;
44270;SDS011;29963;44.594;11.368;2023-03-11T08:42:06;6.63;;;1.33;;
44270;SDS011;29963;44.594;11.368;2023-03-11T08:44:31;6.25;;;1.60;;
44270;SDS011;29963;44.594;11.368;2023-03-11T08:46:57;1.65;;;0.80;;
44270;SDS011;29963;44.594;11.368;2023-03-11T08:49:23;0.80;;;0.80;;
44270;SDS011;29963;44.594;11.368;2023-03-11T08:51:48;1.38;;;0.90;;
44270;SDS011;29963;44.594;11.368;2023-03-11T08:54:14;2.22;;;0.75;;
44270;SDS011;29963;44.594;11.368;2023-03-11T08:56:40;1.55;;;1.35;;
44270;SDS011;29963;44.594;11.368;2023-03-11T08:59:06;3.13;;;1.10;;
44270;SDS011;29963;44.594;11.368;2023-03-11T09:01:32;0.90;;;0.90;;
44270;SDS011;29963;44.594;11.368;2023-03-11T09:03:58;3.28;;;1.10;;
44270;SDS011;29963;44.594;11.368;2023-03-11T09:06:23;4.07;;;1.10;;
44270;SDS011;29963;44.594;11.368;2023-03-11T09:08:49;1.20;;;0.90;;
44270;SDS011;29963;44.594;11.368;2023-03-11T09:11:18;2.22;;;1.17;;
44270;SDS011;29963;44.594;11.368;2023-03-11T09:13:45;1.35;;;0.90;;
44270;SDS011;29963;44.594;11.368;2023-03-11T09:16:12;0.50;;;0.50;;
44270;SDS011;29963;44.594;11.368;2023-03-11T09:18:56;2.15;;;1.05;;
44270;SDS011;29963;44.594;11.368;2023-03-11T09:21:24;2.50;;;1.00;;
44270;SDS011;29963;44.594;11.368;2023-03-11T09:23:49;2.08;;;1.10;;
44270;SDS011;29963;44.594;11.368;2023-03-11T09:26:15;2.58;;;0.80;;
44270;SDS011;29963;44.594;11.368;2023-03-11T09:28:41;1.55;;;0.90;;
44270;SDS011;29963;44.594;11.368;2023-03-11T09:31:07;2.10;;;0.95;;
44270;SDS011;29963;44.594;11.368;2023-03-11T09:33:40;2.05;;;1.08;;
44270;SDS011;29963;44.594;11.368;2023-03-11T09:36:07;1.73;;;0.88;;
44270;SDS011;29963;44.594;11.368;2023-03-11T09:38:36;1.33;;;0.75;;
44270;SDS011;29963;44.594;11.368;2023-03-11T09:51:45;1.83;;;0.90;;
44270;SDS011;29963;44.594;11.368;2023-03-11T09:54:21;3.22;;;0.90;;
44270;SDS011;29963;44.594;11.368;2023-03-11T09:56:47;1.60;;;0.75;;
44270;SDS011;29963;44.594;11.368;2023-03-11T09:59:14;1.60;;;0.90;;
44270;SDS011;29963;44.594;11.368;2023-03-11T10:01:46;1.45;;;0.80;;
44270;SDS011;29963;44.594;11.368;2023-03-11T10:04:22;1.67;;;0.90;;
44270;SDS011;29963;44.594;11.368;2023-03-11T10:06:56;0.77;;;0.60;;
44270;SDS011;29963;44.594;11.368;2023-03-11T10:09:40;2.15;;;1.10;;
44270;SDS011;29963;44.594;11.368;2023-03-11T10:17:54;1.13;;;0.70;;
44270;SDS011;29963;44.594;11.368;2023-03-11T10:20:29;2.28;;;0.80;;
44270;SDS011;29963;44.594;11.368;2023-03-11T10:28:27;2.80;;;1.27;;
44270;SDS011;29963;44.594;11.368;2023-03-11T10:31:06;2.90;;;0.80;;
44270;SDS011;29963;44.594;11.368;2023-03-11T10:43:04;1.10;;;0.63;;
44270;SDS011;29963;44.594;11.368;2023-03-11T10:45:45;0.60;;;0.60;;
44270;SDS011;29963;44.594;11.368;2023-03-11T10:48:15;2.50;;;0.60;;
44270;SDS011;29963;44.594;11.368;2023-03-11T10:50:48;0.52;;;0.50;;
44270;SDS011;29963;44.594;11.368;2023-03-11T10:53:15;1.20;;;1.15;;
44270;SDS011;29963;44.594;11.368;2023-03-11T10:55:50;0.73;;;0.68;;
44270;SDS011;29963;44.594;11.368;2023-03-11T10:58:19;1.85;;;0.60;;
44270;SDS011;29963;44.594;11.368;2023-03-11T11:01:32;2.30;;;0.60;;
44270;SDS011;29963;44.594;11.368;2023-03-11T11:03:40;3.08;;;1.10;;
44270;SDS011;29963;44.594;11.368;2023-03-11T11:06:17;8.95;;;1.20;;
44270;SDS011;29963;44.594;11.368;2023-03-11T11:09:02;1.00;;;0.80;;
44270;SDS011;29963;44.594;11.368;2023-03-11T11:12:05;1.25;;;0.60;;
44270;SDS011;29963;44.594;11.368;2023-03-11T11:17:31;0.80;;;0.80;;
44270;SDS011;29963;44.594;11.368;2023-03-11T11:19:58;2.60;;;0.80;;
44270;SDS011;29963;44.594;11.368;2023-03-11T11:22:37;1.00;;;0.70;;
44270;SDS011;29963;44.594;11.368;2023-03-11T11:25:22;0.68;;;0.60;;
44270;SDS011;29963;44.594;11.368;2023-03-11T11:30:51;2.67;;;0.75;;
44270;SDS011;29963;44.594;11.368;2023-03-11T11:33:20;1.25;;;0.85;;
44270;SDS011;29963;44.594;11.368;2023-03-11T11:35:52;0.57;;;0.57;;
44270;SDS011;29963;44.594;11.368;2023-03-11T11:38:23;2.05;;;0.80;;
44270;SDS011;29963;44.594;11.368;2023-03-11T11:40:50;0.55;;;0.55;;
44270;SDS011;29963;44.594;11.368;2023-03-11T11:43:18;3.20;;;0.70;;
44270;SDS011;29963;44.594;11.368;2023-03-11T11:45:52;0.70;;;0.70;;
44270;SDS011;29963;44.594;11.368;2023-03-11T11:49:04;0.65;;;0.65;;
44270;SDS011;29963;44.594;11.368;2023-03-11T11:51:23;0.93;;;0.80;;
44270;SDS011;29963;44.594;11.368;2023-03-11T11:56:57;1.08;;;0.60;;
44270;SDS011;29963;44.594;11.368;2023-03-11T11:59:24;3.72;;;0.60;;
44270;SDS011;29963;44.594;11.368;2023-03-11T12:05:08;0.40;;;0.40;;
44270;SDS011;29963;44.594;11.368;2023-03-11T12:13:18;1.45;;;0.50;;
44270;SDS011;29963;44.594;11.368;2023-03-11T12:18:47;1.08;;;0.75;;
44270;SDS011;29963;44.594;11.368;2023-03-11T12:21:59;1.63;;;0.68;;
44270;SDS011;29963;44.594;11.368;2023-03-11T12:27:00;1.52;;;0.60;;
44270;SDS011;29963;44.594;11.368;2023-03-11T12:29:31;1.15;;;0.70;;
44270;SDS011;29963;44.594;11.368;2023-03-11T12:32:00;1.75;;;1.02;;
44270;SDS011;29963;44.594;11.368;2023-03-11T12:34:27;4.13;;;0.55;;
44270;SDS011;29963;44.594;11.368;2023-03-11T12:36:56;0.50;;;0.50;;
44270;SDS011;29963;44.594;11.368;2023-03-11T12:39:28;0.47;;;0.47;;
44270;SDS011;29963;44.594;11.368;2023-03-11T12:44:36;0.98;;;0.60;;
44270;SDS011;29963;44.594;11.368;2023-03-11T12:49:38;0.50;;;0.50;;
44270;SDS011;29963;44.594;11.368;2023-03-11T12:54:40;2.45;;;0.68;;
44270;SDS011;29963;44.594;11.368;2023-03-11T13:08:46;0.40;;;0.40;;
44270;SDS011;29963;44.594;11.368;2023-03-11T13:11:25;0.50;;;0.50;;
44270;SDS011;29963;44.594;11.368;2023-03-11T13:16:47;0.40;;;0.40;;
44270;SDS011;29963;44.594;11.368;2023-03-11T13:21:54;0.50;;;0.50;;
44270;SDS011;29963;44.594;11.368;2023-03-11T13:26:55;0.63;;;0.63;;
44270;SDS011;29963;44.594;11.368;2023-03-11T13:29:46;0.77;;;0.60;;
44270;SDS011;29963;44.594;11.368;2023-03-11T13:37:29;2.10;;;1.42;;
44270;SDS011;29963;44.594;11.368;2023-03-11T13:45:54;1.02;;;0.98;;
44270;SDS011;29963;44.594;11.368;2023-03-11T13:48:04;0.80;;;0.80;;
44270;SDS011;29963;44.594;11.368;2023-03-11T13:50:40;1.60;;;0.80;;
44270;SDS011;29963;44.594;11.368;2023-03-11T13:55:58;0.90;;;0.90;;
44270;SDS011;29963;44.594;11.368;2023-03-11T13:58:27;0.70;;;0.70;;
44270;SDS011;29963;44.594;11.368;2023-03-11T14:00:59;0.70;;;0.70;;
44270;SDS011;29963;44.594;11.368;2023-03-11T14:03:31;3.13;;;0.85;;
44270;SDS011;29963;44.594;11.368;2023-03-11T14:06:05;2.33;;;1.00;;
44270;SDS011;29963;44.594;11.368;2023-03-11T14:08:35;1.15;;;0.75;;
44270;SDS011;29963;44.594;11.368;2023-03-11T14:11:03;0.57;;;0.55;;
44270;SDS011;29963;44.594;11.368;2023-03-11T14:16:23;0.40;;;0.40;;
44270;SDS011;29963;44.594;11.368;2023-03-11T14:19:15;1.55;;;0.30;;
44270;SDS011;29963;44.594;11.368;2023-03-11T14:21:42;0.80;;;0.80;;
44270;SDS011;29963;44.594;11.368;2023-03-11T14:24:16;4.95;;;1.15;;
44270;SDS011;29963;44.594;11.368;2023-03-11T14:26:55;2.47;;;1.08;;
44270;SDS011;29963;44.594;11.368;2023-03-11T14:29:34;0.90;;;0.90;;
44270;SDS011;29963;44.594;11.368;2023-03-11T14:34:59;1.23;;;0.50;;
44270;SDS011;29963;44.594;11.368;2023-03-11T14:37:46;0.55;;;0.55;;
44270;SDS011;29963;44.594;11.368;2023-03-11T14:40:44;1.30;;;1.02;;
44270;SDS011;29963;44.594;11.368;2023-03-11T14:43:04;0.80;;;0.60;;
44270;SDS011;29963;44.594;11.368;2023-03-11T14:45:32;0.95;;;0.63;;
44270;SDS011;29963;44.594;11.368;2023-03-11T14:50:50;1.00;;;0.57;;
44270;SDS011;29963;44.594;11.368;2023-03-11T14:53:25;0.25;;;0.20;;
44270;SDS011;29963;44.594;11.368;2023-03-11T14:55:59;0.40;;;0.35;;
44270;SDS011;29963;44.594;11.368;2023-03-11T15:01:11;0.40;;;0.40;;
44270;SDS011;29963;44.594;11.368;2023-03-11T15:04:05;1.05;;;0.40;;
44270;SDS011;29963;44.594;11.368;2023-03-11T15:06:32;0.20;;;0.20;;
44270;SDS011;29963;44.594;11.368;2023-03-11T15:09:11;0.10;;;0.10;;
44270;SDS011;29963;44.594;11.368;2023-03-11T15:11:44;2.85;;;0.63;;
44270;SDS011;29963;44.594;11.368;2023-03-11T15:14:22;0.32;;;0.32;;
44270;SDS011;29963;44.594;11.368;2023-03-11T15:16:53;2.72;;;0.30;;
44270;SDS011;29963;44.594;11.368;2023-03-11T15:19:29;0.32;;;0.20;;
44270;SDS011;29963;44.594;11.368;2023-03-11T15:22:02;0.10;;;0.10;;
44270;SDS011;29963;44.594;11.368;2023-03-11T15:24:31;0.25;;;0.10;;
44270;SDS011;29963;44.594;11.368;2023-03-11T15:26:59;3.17;;;0.70;;
44270;SDS011;29963;44.594;11.368;2023-03-11T15:29:30;1.35;;;1.00;;
44270;SDS011;29963;44.594;11.368;2023-03-11T15:31:57;2.30;;;0.80;;
44270;SDS011;29963;44.594;11.368;2023-03-11T15:34:29;1.60;;;0.47;;
44270;SDS011;29963;44.594;11.368;2023-03-11T15:36:57;2.92;;;1.70;;
44270;SDS011;29963;44.594;11.368;2023-03-11T15:42:01;7.28;;;1.05;;
44270;SDS011;29963;44.594;11.368;2023-03-11T15:47:13;3.75;;;0.85;;
44270;SDS011;29963;44.594;11.368;2023-03-11T15:49:40;2.35;;;0.70;;
44270;SDS011;29963;44.594;11.368;2023-03-11T15:52:06;2.70;;;1.02;;
44270;SDS011;29963;44.594;11.368;2023-03-11T15:54:32;3.10;;;0.68;;
44270;SDS011;29963;44.594;11.368;2023-03-11T15:56:58;2.95;;;1.20;;
44270;SDS011;29963;44.594;11.368;2023-03-11T15:59:25;5.00;;;1.40;;
44270;SDS011;29963;44.594;11.368;2023-03-11T16:01:52;1.55;;;0.90;;
44270;SDS011;29963;44.594;11.368;2023-03-11T16:04:18;1.65;;;0.73;;
44270;SDS011;29963;44.594;11.368;2023-03-11T16:06:45;1.95;;;1.48;;
44270;SDS011;29963;44.594;11.368;2023-03-11T16:09:12;1.98;;;1.00;;
44270;SDS011;29963;44.594;11.368;2023-03-11T16:11:39;3.42;;;1.58;;
44270;SDS011;29963;44.594;11.368;2023-03-11T16:14:08;3.00;;;1.20;;
44270;SDS011;29963;44.594;11.368;2023-03-11T16:16:40;3.33;;;1.42;;
44270;SDS011;29963;44.594;11.368;2023-03-11T16:19:06;3.42;;;1.02;;
44270;SDS011;29963;44.594;11.368;2023-03-11T16:21:33;4.68;;;1.00;;
44270;SDS011;29963;44.594;11.368;2023-03-11T16:24:03;1.85;;;1.30;;
44270;SDS011;29963;44.594;11.368;2023-03-11T16:26:29;4.68;;;1.27;;
44270;SDS011;29963;44.594;11.368;2023-03-11T16:28:56;7.78;;;1.88;;
44270;SDS011;29963;44.594;11.368;2023-03-11T16:31:22;1.65;;;1.25;;
44270;SDS011;29963;44.594;11.368;2023-03-11T16:33:48;3.92;;;1.30;;
44270;SDS011;29963;44.594;11.368;2023-03-11T16:36:13;1.67;;;1.10;;
44270;SDS011;29963;44.594;11.368;2023-03-11T16:38:43;2.47;;;1.10;;